createdAt,value
2023-02-28T13:30:13.980Z,25.00
2023-02-28T13:34:13.932Z,0.00
2023-02-28T13:38:13.886Z,21.66
2023-02-28T13:42:13.849Z,25.00
2023-02-28T13:46:14.110Z,25.00
2023-02-28T13:50:13.810Z,25.46
2023-02-28T13:54:13.787Z,27.38
2023-02-28T13:58:13.738Z,25.23
2023-02-28T14:02:13.689Z,26.53
2023-02-28T14:06:13.689Z,29.40
2023-02-28T14:10:13.645Z,29.77
2023-02-28T14:14:13.628Z,31.41
2023-02-28T14:18:13.544Z,28.94
2023-02-28T14:22:13.529Z,33.15
2023-02-28T14:26:13.503Z,34.61
2023-02-28T14:30:13.561Z,37.53
2023-02-28T14:34:13.558Z,37.15
2023-02-28T14:38:13.537Z,37.27
2023-02-28T14:42:13.551Z,39.31
2023-02-28T14:46:13.776Z,33.35
2023-02-28T14:50:13.959Z,31.44
2023-02-28T14:54:14.092Z,25.00
2023-02-28T14:58:14.224Z,32.25
2023-02-28T15:02:14.401Z,34.91
2023-02-28T15:06:14.602Z,37.67
2023-02-28T15:10:14.565Z,31.55
2023-02-28T15:14:14.578Z,27.77
2023-02-28T15:18:14.457Z,31.37
2023-02-28T15:22:14.442Z,32.92
2023-02-28T15:26:14.443Z,37.00
2023-02-28T15:30:14.393Z,25.57
2023-02-28T15:34:14.317Z,25.24
2023-02-28T15:38:14.351Z,29.71
2023-02-28T15:42:14.263Z,29.44
2023-02-28T15:46:14.324Z,28.66
2023-02-28T15:50:14.224Z,27.96
2023-02-28T15:54:14.168Z,29.60
2023-02-28T15:58:14.105Z,25.63
2023-02-28T16:02:14.135Z,26.50
2023-02-28T16:06:14.093Z,27.16
2023-02-28T16:10:14.080Z,27.49
2023-02-28T16:14:14.320Z,28.21
2023-02-28T16:18:14.565Z,27.78
2023-02-28T16:22:14.792Z,28.46
2023-02-28T16:26:14.935Z,25.96
2023-02-28T16:30:15.148Z,26.94
2023-02-28T16:34:15.383Z,27.28
2023-02-28T16:38:15.342Z,26.14
2023-02-28T16:42:15.358Z,26.56
2023-02-28T16:46:15.296Z,25.00
2023-02-28T16:50:15.230Z,28.65
2023-02-28T16:54:15.220Z,28.69
2023-02-28T16:58:15.161Z,27.32
2023-02-28T17:02:15.407Z,29.64
2023-02-28T17:06:15.117Z,29.01
2023-02-28T17:10:15.123Z,25.99
2023-02-28T17:14:15.020Z,29.35
2023-02-28T17:18:15.003Z,27.10
2023-02-28T17:22:14.985Z,31.30
2023-02-28T17:26:14.969Z,25.93
2023-02-28T17:30:14.902Z,26.06
2023-02-28T17:34:14.861Z,28.30
2023-02-28T17:38:14.832Z,30.24
2023-02-28T17:42:14.828Z,27.54
2023-02-28T17:46:14.971Z,26.03
2023-02-28T17:50:14.883Z,26.42
2023-02-28T17:54:14.833Z,30.41
2023-02-28T17:58:15.350Z,29.35
2023-02-28T18:02:14.770Z,30.97
2023-02-28T18:06:14.781Z,32.63
2023-02-28T18:10:14.693Z,28.70
2023-02-28T18:14:14.657Z,30.11
2023-02-28T18:18:14.650Z,28.11
2023-02-28T18:22:14.613Z,27.40
2023-02-28T18:26:14.541Z,29.65
2023-02-28T18:30:14.514Z,27.49
2023-02-28T18:34:14.488Z,31.58
2023-02-28T18:38:14.472Z,31.49
2023-02-28T18:42:14.446Z,27.01
2023-02-28T18:46:14.430Z,25.00
2023-02-28T18:50:14.379Z,25.53
2023-02-28T18:54:14.319Z,29.74
2023-02-28T18:58:14.305Z,30.62
2023-02-28T19:02:14.285Z,30.94
2023-02-28T19:06:14.501Z,34.36
2023-02-28T19:10:14.666Z,49.20
2023-02-28T19:14:14.872Z,57.91
2023-02-28T19:18:14.851Z,61.10
2023-02-28T19:22:14.785Z,62.51
2023-02-28T19:26:14.797Z,63.97
2023-02-28T19:30:14.716Z,61.62
2023-02-28T19:34:14.741Z,61.30
2023-02-28T19:38:14.658Z,60.09
2023-02-28T19:42:14.621Z,60.82
2023-02-28T19:46:14.693Z,61.68
2023-02-28T19:50:14.582Z,60.92
2023-02-28T19:54:14.575Z,59.12
2023-02-28T19:58:14.803Z,62.31
2023-02-28T20:02:14.987Z,61.91
2023-02-28T20:06:15.179Z,61.40
2023-02-28T20:10:15.133Z,60.44
2023-02-28T20:14:15.145Z,62.53
2023-02-28T20:18:15.077Z,60.73
2023-02-28T20:22:15.058Z,62.13
2023-02-28T20:26:14.992Z,59.00
2023-02-28T20:30:15.010Z,59.45
2023-02-28T20:34:14.975Z,60.63
2023-02-28T20:38:14.912Z,57.42
2023-02-28T20:42:14.867Z,60.71
2023-02-28T20:46:14.897Z,58.54
2023-02-28T20:50:14.855Z,58.22
2023-02-28T20:54:14.767Z,55.21
2023-02-28T20:58:14.739Z,57.68
2023-02-28T21:02:14.772Z,57.65
2023-02-28T21:06:14.687Z,59.36
2023-02-28T21:10:14.603Z,57.65
2023-02-28T21:14:14.651Z,57.39
2023-02-28T21:18:14.629Z,55.08
2023-02-28T21:22:14.647Z,58.16
2023-02-28T21:26:14.680Z,57.49
2023-02-28T21:30:14.743Z,59.43
2023-02-28T21:34:14.780Z,58.32
2023-02-28T21:38:14.816Z,58.37
2023-02-28T21:42:14.837Z,60.31
2023-02-28T21:46:14.955Z,58.65
2023-02-28T21:50:14.924Z,59.80
2023-02-28T21:54:14.957Z,61.63
2023-02-28T21:58:15.044Z,58.70
2023-02-28T22:02:15.114Z,61.28
2023-02-28T22:06:15.146Z,59.23
2023-02-28T22:10:15.277Z,62.22
2023-02-28T22:14:15.341Z,61.77
2023-02-28T22:18:15.425Z,61.75
2023-02-28T22:22:15.554Z,62.08
2023-02-28T22:26:15.692Z,62.53
2023-02-28T22:30:15.780Z,63.08
2023-02-28T22:34:15.975Z,62.58
2023-02-28T22:38:16.062Z,61.73
2023-02-28T22:42:16.194Z,61.37
2023-02-28T22:46:16.351Z,63.14
2023-02-28T22:50:16.471Z,64.18
2023-02-28T22:54:16.686Z,63.75
2023-02-28T22:58:16.834Z,62.16
2023-02-28T23:02:16.980Z,64.36
2023-02-28T23:06:17.433Z,61.61
2023-02-28T23:10:17.335Z,64.03
2023-02-28T23:14:17.528Z,62.05
2023-02-28T23:18:17.691Z,63.37
2023-02-28T23:22:17.941Z,63.80
2023-02-28T23:26:18.143Z,63.68
2023-02-28T23:30:18.405Z,65.66
2023-02-28T23:34:18.646Z,65.32
2023-02-28T23:38:18.827Z,64.61
2023-02-28T23:42:19.058Z,65.74
2023-02-28T23:46:18.980Z,68.58
2023-02-28T23:50:18.938Z,64.79
2023-02-28T23:54:18.956Z,64.42
2023-02-28T23:58:18.918Z,65.28
